GIA210 WIII-WARR
Flight info
| Callsign | GIA210 |
|---|---|
| Flight time | N/A |
| Altitude | 33000 |
| Route | CA2D CA T3 BA BA1C |
| Aircraft | B77W/H-SDE1E2E3FGHIJ2J3J4J5M1RWXY/LB1D1 |
Departure
| Time | 2026-05-04 10:39 |
|---|---|
| Airport | Soekarno-Hatta International Airport (WIII) |
Arrival
| Time | N/A |
|---|---|
| Airport | Juanda International Airport (WARR) |
| Time | Latitude | Longitude | Altitude | Speed | Heading |
|---|---|---|---|---|---|
| 2026-05-04 10:22 | -6.11276 | 106.67128 | 36 ft | 0 kts | 248° |
| 2026-05-04 10:32 | -6.11273 | 106.67148 | 35 ft | 3 kts | 293° |
| 2026-05-04 10:33 | -6.11284 | 106.67163 | 33 ft | 3 kts | 335° |
| 2026-05-04 10:33 | -6.11303 | 106.67167 | 34 ft | 3 kts | 18° |
| 2026-05-04 10:33 | -6.11310 | 106.67165 | 34 ft | 0 kts | 37° |
| 2026-05-04 10:36 | -6.11274 | 106.67200 | 37 ft | 15 kts | 53° |
| 2026-05-04 10:36 | -6.11200 | 106.67331 | 37 ft | 28 kts | 45° |
| 2026-05-04 10:36 | -6.11108 | 106.67361 | 35 ft | 8 kts | 328° |
| 2026-05-04 10:36 | -6.11092 | 106.67272 | 35 ft | 19 kts | 258° |
| 2026-05-04 10:37 | -6.11115 | 106.67103 | 34 ft | 30 kts | 268° |
| 2026-05-04 10:37 | -6.11055 | 106.67000 | 34 ft | 11 kts | 328° |
| 2026-05-04 10:37 | -6.11048 | 106.66996 | 34 ft | 0 kts | 331° |
| 2026-05-04 10:39 | -6.12333 | 106.63536 | 2352 ft | 229 kts | 234° |
| 2026-05-04 10:39 | -6.13070 | 106.62033 | 3113 ft | 256 kts | 261° |
| 2026-05-04 10:39 | -6.12831 | 106.60222 | 3886 ft | 270 kts | 292° |
| 2026-05-04 10:40 | -6.12063 | 106.58466 | 4838 ft | 279 kts | 293° |
| 2026-05-04 10:40 | -6.11308 | 106.56686 | 6012 ft | 282 kts | 292° |
| 2026-05-04 10:40 | -6.10705 | 106.54823 | 7026 ft | 284 kts | 276° |
| 2026-05-04 10:40 | -6.10865 | 106.52836 | 7718 ft | 286 kts | 251° |
| 2026-05-04 10:41 | -6.11842 | 106.51089 | 8048 ft | 293 kts | 227° |
| 2026-05-04 10:41 | -6.13480 | 106.49880 | 8030 ft | 294 kts | 201° |
| 2026-05-04 10:41 | -6.15447 | 106.49432 | 8089 ft | 289 kts | 184° |
| 2026-05-04 10:41 | -6.17454 | 106.49304 | 8865 ft | 291 kts | 181° |
| 2026-05-04 10:42 | -6.19484 | 106.49227 | 9957 ft | 292 kts | 179° |
| 2026-05-04 10:42 | -6.21476 | 106.49652 | 10664 ft | 303 kts | 151° |
| 2026-05-04 10:42 | -6.23131 | 106.51074 | 10973 ft | 332 kts | 123° |
| 2026-05-04 10:42 | -6.23981 | 106.53267 | 11300 ft | 355 kts | 97° |
| 2026-05-04 10:43 | -6.24217 | 106.55779 | 11850 ft | 367 kts | 96° |
| 2026-05-04 10:44 | -6.27861 | 106.74198 | 18204 ft | 401 kts | 103° |
| 2026-05-04 10:45 | -6.28502 | 106.76948 | 18920 ft | 406 kts | 103° |
| 2026-05-04 10:45 | -6.29152 | 106.79732 | 19686 ft | 410 kts | 103° |
| 2026-05-04 10:45 | -6.29808 | 106.82541 | 20429 ft | 414 kts | 103° |
| 2026-05-04 10:45 | -6.30468 | 106.85370 | 21169 ft | 418 kts | 103° |
| 2026-05-04 10:46 | -6.31132 | 106.88222 | 21887 ft | 423 kts | 102° |
| 2026-05-04 10:46 | -6.31808 | 106.91125 | 22609 ft | 428 kts | 102° |
| 2026-05-04 10:46 | -6.32490 | 106.94060 | 23304 ft | 432 kts | 102° |
| 2026-05-04 10:46 | -6.33177 | 106.97019 | 23898 ft | 437 kts | 102° |
| 2026-05-04 10:47 | -6.33869 | 107.00000 | 24456 ft | 441 kts | 102° |
| 2026-05-04 10:47 | -6.34570 | 107.03019 | 25023 ft | 445 kts | 102° |
| 2026-05-04 10:47 | -6.35277 | 107.06067 | 25585 ft | 449 kts | 102° |
| 2026-05-04 10:47 | -6.35988 | 107.09131 | 26124 ft | 453 kts | 102° |
| 2026-05-04 10:49 | -6.41114 | 107.31255 | 30280 ft | 467 kts | 102° |
| 2026-05-04 10:49 | -6.41848 | 107.34424 | 30948 ft | 465 kts | 102° |
| 2026-05-04 10:50 | -6.42582 | 107.37596 | 31602 ft | 464 kts | 102° |
| 2026-05-04 10:51 | -6.47678 | 107.59656 | 33035 ft | 460 kts | 102° |
| 2026-05-04 10:52 | -6.48400 | 107.62786 | 33038 ft | 460 kts | 102° |
| 2026-05-04 10:52 | -6.49840 | 107.69070 | 33036 ft | 461 kts | 101° |
| 2026-05-04 10:54 | -6.53056 | 107.92781 | 33043 ft | 511 kts | 96° |
| 2026-05-04 10:54 | -6.53537 | 107.96340 | 33053 ft | 514 kts | 96° |
| 2026-05-04 10:56 | -6.57427 | 108.24936 | 33022 ft | 520 kts | 97° |
| 2026-05-04 10:57 | -6.58395 | 108.32093 | 33023 ft | 519 kts | 96° |
| 2026-05-04 10:57 | -6.59367 | 108.39284 | 33024 ft | 518 kts | 96° |
| 2026-05-04 10:58 | -6.60336 | 108.46460 | 33022 ft | 517 kts | 96° |
| 2026-05-04 10:58 | -6.61299 | 108.53608 | 33023 ft | 516 kts | 96° |
| 2026-05-04 10:59 | -6.62262 | 108.60761 | 33017 ft | 516 kts | 96° |
| 2026-05-04 10:59 | -6.63225 | 108.67916 | 33027 ft | 516 kts | 96° |
| 2026-05-04 11:00 | -6.64184 | 108.75059 | 33021 ft | 516 kts | 96° |
| 2026-05-04 11:02 | -6.67999 | 109.03523 | 33009 ft | 517 kts | 96° |
| 2026-05-04 11:05 | -6.75139 | 109.57159 | 33015 ft | 515 kts | 96° |
| 2026-05-04 11:06 | -6.76081 | 109.64266 | 33005 ft | 515 kts | 96° |
| 2026-05-04 11:06 | -6.77027 | 109.71417 | 33008 ft | 516 kts | 96° |
| 2026-05-04 11:10 | -6.83462 | 110.20261 | 33011 ft | 518 kts | 96° |
| 2026-05-04 11:12 | -6.87224 | 110.48996 | 33010 ft | 517 kts | 96° |
| 2026-05-04 11:12 | -6.88161 | 110.56177 | 33005 ft | 516 kts | 96° |
| 2026-05-04 11:13 | -6.89096 | 110.63341 | 32991 ft | 516 kts | 96° |
| 2026-05-04 11:13 | -6.90023 | 110.70462 | 33003 ft | 516 kts | 96° |
| 2026-05-04 11:14 | -6.90179 | 110.71661 | 32999 ft | 516 kts | 96° |
| 2026-05-04 11:16 | -6.94636 | 111.06011 | 32997 ft | 515 kts | 96° |
| 2026-05-04 11:16 | -6.95562 | 111.13172 | 33002 ft | 515 kts | 96° |
| 2026-05-04 11:17 | -6.96485 | 111.20318 | 32994 ft | 515 kts | 96° |
| 2026-05-04 11:19 | -7.00873 | 111.48689 | 33010 ft | 515 kts | 105° |
| 2026-05-04 11:19 | -7.03025 | 111.55579 | 33003 ft | 515 kts | 106° |
| 2026-05-04 11:20 | -7.05110 | 111.62487 | 33003 ft | 515 kts | 105° |
| 2026-05-04 11:20 | -7.07084 | 111.69417 | 33005 ft | 516 kts | 105° |
| 2026-05-04 11:22 | -7.14941 | 111.97285 | 32588 ft | 513 kts | 105° |
| 2026-05-04 11:23 | -7.15884 | 112.00553 | 31617 ft | 503 kts | 107° |
| 2026-05-04 11:23 | -7.17090 | 112.03814 | 30577 ft | 486 kts | 112° |
| 2026-05-04 11:24 | -7.24507 | 112.20505 | 24251 ft | 398 kts | 113° |
| 2026-05-04 11:25 | -7.25581 | 112.23025 | 23285 ft | 389 kts | 113° |
| 2026-05-04 11:25 | -7.26641 | 112.25516 | 22164 ft | 382 kts | 113° |
| 2026-05-04 11:25 | -7.27679 | 112.27949 | 21107 ft | 375 kts | 113° |
| 2026-05-04 11:26 | -7.29688 | 112.32699 | 19006 ft | 363 kts | 110° |
| 2026-05-04 11:27 | -7.27814 | 112.48748 | 10529 ft | 348 kts | 47° |
| 2026-05-04 11:28 | -7.26542 | 112.50754 | 9373 ft | 339 kts | 73° |
| 2026-05-04 11:28 | -7.26334 | 112.53072 | 8132 ft | 331 kts | 101° |
| 2026-05-04 11:28 | -7.27121 | 112.55202 | 7224 ft | 318 kts | 119° |
| 2026-05-04 11:28 | -7.28303 | 112.57010 | 6584 ft | 299 kts | 128° |
| 2026-05-04 11:29 | -7.29634 | 112.58487 | 5884 ft | 271 kts | 137° |
| 2026-05-04 11:29 | -7.31164 | 112.59428 | 5232 ft | 255 kts | 164° |
| 2026-05-04 11:29 | -7.32937 | 112.59503 | 4604 ft | 257 kts | 189° |
| 2026-05-04 11:29 | -7.34598 | 112.58921 | 4070 ft | 247 kts | 206° |
| 2026-05-04 11:31 | -7.36721 | 112.62713 | 2479 ft | 154 kts | 77° |
| 2026-05-04 11:33 | -7.36787 | 112.70244 | 1407 ft | 154 kts | 95° |
| 2026-05-04 11:33 | -7.36874 | 112.71314 | 1206 ft | 153 kts | 93° |
| 2026-05-04 11:33 | -7.36973 | 112.72386 | 1010 ft | 154 kts | 98° |
| 2026-05-04 11:34 | -7.37142 | 112.73449 | 834 ft | 153 kts | 99° |
| 2026-05-04 11:34 | -7.37312 | 112.74497 | 635 ft | 150 kts | 99° |
| 2026-05-04 11:34 | -7.37476 | 112.75525 | 419 ft | 148 kts | 99° |
| 2026-05-04 11:34 | -7.37640 | 112.76541 | 226 ft | 146 kts | 99° |
| 2026-05-04 11:35 | -7.37803 | 112.77556 | 38 ft | 147 kts | 99° |
| 2026-05-04 11:35 | -7.37954 | 112.78422 | 13 ft | 75 kts | 99° |